Terminal Aerodrome Forecast
Issued by NWS Omaha/Valley, NE

Home | Current Version | Previous Version | Text Only | Print | Product List | Glossary On
Versions: 1 2 3 4 5 6 7 8 9 10 11 12 13 14 15 16 17 18 19
000
FTUS43 KOAX 310520
TAFOFK
TAF
KOFK 310520Z 3106/0106 17010KT P6SM -TSRA SCT040CB OVC080
     FM310800 31008KT P6SM VCSH BKN080
     FM311000 31010KT P6SM SCT250=

USA.gov is the U.S. government's official web portal to all federal, state and local government web resources and services.